KDEH/DEH METAR and TAF weather

Enter ICAO airport designator
Station Type Date Time Source
KDEH METAR 2020/01/20 13:15 UTC NOAA

KDEH 201315Z AUTO 34005KT 10SM OVC024 M13/M14 A3058 RMK AO2


Station Type Date Time Source
KDEH Decoded METAR 2020/01/20 13:15 UTC NOAA

Decorah, IA, United States (KDEH) 43-17N 091-44W
Jan 20, 2020 - 08:15 AM EST / 2020.01.20 1315 UTC
Wind: from the NNW (340 degrees) at 6 MPH (5 KT):0
Visibility: 10 mile(s):0
Sky conditions: overcast
Temperature: 8 F (-13 C)
Windchill: -2 F (-19 C):1
Dew Point: 6 F (-14 C)
Relative Humidity: 92%
Pressure (altimeter): 30.58 in. Hg (1035 hPa)
ob: KDEH 201315Z AUTO 34005KT 10SM OVC024 M13/M14 A3058 RMK AO2
cycle: 13

Station Type Date Time Source
KDEH TAF UTC NOAA

Error!

Example: see airport list